Time;durP1;ratioP1;P1;durP2;ratioP2;P2;SDS_P1;SDS_P2;PMS_P1;PMS_P2;Temp;Humidity;BMP_temperature;BMP_pressure;BME280_temperature;BME280_humidity;BME280_pressure;Samples;Min_cycle;Max_cycle;Signal;HPM_P1;HPM_P2
2023/10/03 00:00:27;;;;;;;9.98;5.63;;;20.60;99.90;;;;;;5107506;28;20024;-88
2023/10/03 00:02:56;;;;;;;11.00;5.45;;;20.70;99.90;;;;;;5106944;28;20039;-89
2023/10/03 00:05:23;;;;;;;9.45;5.72;;;20.70;99.90;;;;;;5079280;28;20036;-89
2023/10/03 00:07:51;;;;;;;8.10;5.35;;;20.80;99.90;;;;;;5084369;28;20092;-88
2023/10/03 00:10:17;;;;;;;11.32;5.60;;;20.80;99.90;;;;;;5110459;28;20322;-90
2023/10/03 00:12:44;;;;;;;9.05;5.70;;;20.80;99.90;;;;;;5110844;28;20055;-89
2023/10/03 00:15:12;;;;;;;8.88;5.38;;;20.80;99.90;;;;;;5108749;28;20062;-88
2023/10/03 00:17:39;;;;;;;13.00;5.88;;;20.90;99.90;;;;;;5092251;28;20047;-87
2023/10/03 00:20:05;;;;;;;12.75;5.90;;;20.90;99.90;;;;;;5092128;28;20036;-88
2023/10/03 00:22:30;;;;;;;8.85;5.25;;;20.90;99.90;;;;;;5110518;28;20020;-88
2023/10/03 00:24:56;;;;;;;10.85;5.93;;;20.90;99.90;;;;;;5111236;28;20391;-88
2023/10/03 00:27:23;;;;;;;13.10;6.20;;;20.90;99.90;;;;;;5109699;28;20023;-88
2023/10/03 00:29:51;;;;;;;12.05;5.65;;;20.80;99.90;;;;;;5092278;28;20487;-89
2023/10/03 00:32:16;;;;;;;15.13;6.60;;;20.90;99.90;;;;;;5108646;28;20019;-90
2023/10/03 00:34:42;;;;;;;11.48;6.03;;;20.90;99.90;;;;;;5110463;28;20028;-88
2023/10/03 00:37:08;;;;;;;16.60;6.40;;;20.90;99.90;;;;;;5093864;28;20036;-88
2023/10/03 00:39:33;;;;;;;13.52;6.00;;;20.90;99.90;;;;;;5072837;28;20077;-90
2023/10/03 00:42:05;;;;;;;14.00;6.22;;;20.90;99.90;;;;;;5090068;28;20063;-89
2023/10/03 00:44:31;;;;;;;11.02;6.15;;;20.80;99.90;;;;;;5090265;28;20016;-87
2023/10/03 00:46:56;;;;;;;12.68;5.68;;;20.90;99.90;;;;;;5109915;28;20433;-89
2023/10/03 00:49:24;;;;;;;10.23;5.80;;;21.00;99.90;;;;;;5109237;28;20521;-88
2023/10/03 00:51:51;;;;;;;10.93;5.75;;;21.00;99.90;;;;;;5110110;28;20023;-89
2023/10/03 00:54:17;;;;;;;15.47;6.47;;;21.10;99.90;;;;;;5091385;28;20089;-89
2023/10/03 00:56:43;;;;;;;11.00;6.13;;;21.00;99.90;;;;;;5091963;28;20024;-88
2023/10/03 00:59:10;;;;;;;12.15;6.32;;;20.90;99.90;;;;;;5110187;28;20038;-88
2023/10/03 01:01:36;;;;;;;10.98;6.25;;;20.90;99.90;;;;;;5090180;28;20020;-87
2023/10/03 01:04:04;;;;;;;14.05;6.30;;;20.90;99.90;;;;;;5091434;28;20040;-88
2023/10/03 01:06:29;;;;;;;11.55;6.05;;;20.90;99.90;;;;;;5084370;28;20103;-89
2023/10/03 01:08:55;;;;;;;9.50;5.30;;;20.90;99.90;;;;;;5071923;28;20111;-88
2023/10/03 01:11:24;;;;;;;11.68;4.90;;;21.00;99.90;;;;;;5072483;28;20472;-88
2023/10/03 01:13:56;;;;;;;7.05;4.47;;;20.80;99.90;;;;;;5109998;28;20035;-87
2023/10/03 01:16:29;;;;;;;7.05;4.32;;;20.90;99.90;;;;;;5107181;28;20028;-88
2023/10/03 01:18:59;;;;;;;8.45;3.80;;;20.80;99.90;;;;;;5084736;28;20020;-87
2023/10/03 01:21:25;;;;;;;7.60;4.07;;;20.80;99.90;;;;;;5109311;28;20425;-89
2023/10/03 01:23:51;;;;;;;5.82;3.70;;;20.80;99.90;;;;;;5072039;28;20274;-88
2023/10/03 01:26:18;;;;;;;6.55;3.97;;;20.90;99.90;;;;;;5078455;28;20023;-88
2023/10/03 01:28:44;;;;;;;6.35;3.85;;;20.80;99.90;;;;;;5106353;28;20020;-87
2023/10/03 01:31:10;;;;;;;6.82;3.97;;;20.80;99.90;;;;;;5109595;28;20169;-88
2023/10/03 01:33:36;;;;;;;7.93;3.60;;;20.80;99.90;;;;;;5109155;28;20407;-87
2023/10/03 01:36:03;;;;;;;8.15;3.65;;;20.90;99.90;;;;;;5109736;28;20027;-87
2023/10/03 01:38:29;;;;;;;7.03;3.90;;;20.90;99.90;;;;;;5110280;28;20016;-88
2023/10/03 01:41:00;;;;;;;8.27;4.18;;;21.00;99.90;;;;;;5109515;28;20444;-87
2023/10/03 01:43:26;;;;;;;5.03;3.80;;;20.90;99.90;;;;;;5108238;28;20050;-89
2023/10/03 01:45:53;;;;;;;6.07;3.85;;;21.00;99.90;;;;;;5077019;28;20036;-89
2023/10/03 01:48:19;;;;;;;8.02;4.03;;;20.90;99.90;;;;;;5089092;28;20567;-87
2023/10/03 01:50:44;;;;;;;8.15;4.20;;;21.00;99.90;;;;;;5089000;28;20119;-88
2023/10/03 01:53:11;;;;;;;10.27;4.40;;;21.00;99.90;;;;;;5088927;28;20056;-90
2023/10/03 01:55:38;;;;;;;9.45;4.13;;;21.00;99.90;;;;;;5090476;28;20085;-87
2023/10/03 01:58:04;;;;;;;7.00;4.15;;;21.00;99.90;;;;;;5109141;28;20049;-87
2023/10/03 02:00:30;;;;;;;9.45;4.30;;;21.00;99.90;;;;;;5111180;28;20015;-88
2023/10/03 02:03:19;;;;;;;8.93;4.15;;;21.00;99.90;;;;;;5094706;28;20444;-89
2023/10/03 02:05:45;;;;;;;10.05;4.53;;;21.00;99.90;;;;;;5112563;28;20020;-89
2023/10/03 02:08:17;;;;;;;8.23;4.45;;;20.90;99.90;;;;;;5112890;28;20044;-88
2023/10/03 02:10:47;;;;;;;7.18;4.20;;;20.80;99.90;;;;;;5112934;28;20559;-87
2023/10/03 02:13:14;;;;;;;8.00;4.47;;;20.80;99.90;;;;;;5112888;28;20490;-87
2023/10/03 02:15:42;;;;;;;8.65;4.40;;;20.70;99.90;;;;;;5111258;28;20037;-87
2023/10/03 02:18:18;;;;;;;8.23;4.43;;;20.50;99.90;;;;;;5094496;28;20031;-88
2023/10/03 02:21:04;;;;;;;11.75;4.78;;;20.50;99.90;;;;;;5092236;28;20031;-87
2023/10/03 02:23:32;;;;;;;9.75;4.70;;;20.50;99.90;;;;;;5107993;28;20051;-88
2023/10/03 02:26:07;;;;;;;9.15;4.68;;;20.50;99.90;;;;;;5094088;28;20051;-89
2023/10/03 02:28:32;;;;;;;9.45;4.50;;;20.60;99.90;;;;;;5113481;28;20487;-87
2023/10/03 02:31:00;;;;;;;10.45;5.07;;;20.60;99.90;;;;;;5110596;28;20020;-88
2023/10/03 02:33:28;;;;;;;10.90;4.95;;;20.50;99.90;;;;;;5111915;28;20106;-87
2023/10/03 02:35:54;;;;;;;10.77;4.75;;;20.50;99.90;;;;;;5109525;28;20024;-87
2023/10/03 02:38:30;;;;;;;12.73;4.43;;;20.40;99.90;;;;;;5091981;28;20027;-88
2023/10/03 02:40:57;;;;;;;11.02;4.75;;;20.30;99.90;;;;;;5073650;28;20032;-88
2023/10/03 02:43:24;;;;;;;11.57;4.60;;;20.30;99.90;;;;;;5100762;28;20023;-89
2023/10/03 02:45:50;;;;;;;9.48;4.82;;;20.30;99.90;;;;;;5110880;28;20030;-89
2023/10/03 02:48:16;;;;;;;9.93;4.57;;;20.30;99.90;;;;;;5092986;28;20020;-89
2023/10/03 02:50:47;;;;;;;10.10;4.93;;;20.30;99.90;;;;;;5112221;28;20188;-88
2023/10/03 02:53:14;;;;;;;9.05;4.90;;;20.30;99.90;;;;;;5111984;28;20033;-87
2023/10/03 02:55:41;;;;;;;14.50;4.82;;;20.30;99.90;;;;;;5111664;28;20027;-88
2023/10/03 02:58:09;;;;;;;9.18;4.47;;;20.20;99.90;;;;;;5111009;28;20039;-86
2023/10/03 03:00:35;;;;;;;9.55;4.05;;;20.10;99.90;;;;;;5112677;28;20020;-87
2023/10/03 03:03:02;;;;;;;8.85;4.07;;;20.20;99.90;;;;;;5111223;28;20071;-87
2023/10/03 03:05:35;;;;;;;10.25;4.20;;;20.20;99.90;;;;;;5111712;28;20020;-87
2023/10/03 03:08:04;;;;;;;14.43;4.60;;;20.10;99.90;;;;;;5111750;28;20028;-88
2023/10/03 03:10:31;;;;;;;9.20;4.40;;;20.10;99.90;;;;;;5109625;28;20014;-87
2023/10/03 03:12:57;;;;;;;13.02;4.72;;;20.10;99.90;;;;;;5088878;28;20035;-88
2023/10/03 03:15:23;;;;;;;9.50;4.65;;;20.20;99.90;;;;;;5107103;28;20424;-87
2023/10/03 03:17:52;;;;;;;9.35;4.65;;;20.10;99.90;;;;;;5111040;28;20027;-86
2023/10/03 03:20:20;;;;;;;11.45;5.00;;;20.10;99.90;;;;;;5091303;28;20516;-86
2023/10/03 03:22:50;;;;;;;14.30;4.68;;;20.00;99.90;;;;;;5106171;28;20035;-87
2023/10/03 03:26:09;;;;;;;13.00;4.47;;;19.80;99.90;;;;;;5111237;28;20403;-87
2023/10/03 03:28:15;;;;;;;7.88;4.07;;;19.80;99.90;;;;;;5100839;28;20031;-86
2023/10/03 03:30:56;;;;;;;10.13;4.50;;;19.90;99.90;;;;;;5112292;27;20483;-87
2023/10/03 03:33:26;;;;;;;9.13;4.20;;;19.80;99.90;;;;;;5109035;28;20019;-87
2023/10/03 03:35:52;;;;;;;11.15;4.72;;;19.80;99.90;;;;;;5101045;27;20099;-87
2023/10/03 03:38:18;;;;;;;9.77;4.57;;;19.80;99.90;;;;;;5113755;27;20160;-85
2023/10/03 03:40:53;;;;;;;10.45;4.80;;;19.70;99.90;;;;;;5092416;28;20019;-87
2023/10/03 03:43:21;;;;;;;11.70;4.70;;;19.70;99.90;;;;;;5102398;28;20050;-86
2023/10/03 03:45:47;;;;;;;;;;;19.70;99.90;;;;;;5108361;28;20023;-87
2023/10/03 03:48:13;;;;;;;13.35;5.00;;;19.60;99.90;;;;;;5110760;28;20280;-86
2023/10/03 03:50:39;;;;;;;10.70;5.20;;;19.50;99.90;;;;;;5110761;28;20495;-87
2023/10/03 03:53:06;;;;;;;13.70;4.80;;;19.50;99.90;;;;;;5110371;28;20444;-86
2023/10/03 03:55:34;;;;;;;10.52;4.55;;;19.50;99.90;;;;;;5092167;28;20059;-88
2023/10/03 03:58:01;;;;;;;10.37;4.80;;;19.60;99.90;;;;;;5110713;28;20068;-87
2023/10/03 04:00:32;;;;;;;12.60;4.63;;;19.70;99.90;;;;;;5108646;28;20644;-89
2023/10/03 04:03:08;;;;;;;9.00;4.40;;;19.60;99.90;;;;;;5110218;28;20574;-86
2023/10/03 04:05:35;;;;;;;10.10;4.25;;;19.60;99.90;;;;;;5093231;28;20108;-87
2023/10/03 04:08:03;;;;;;;11.05;4.57;;;19.50;99.90;;;;;;5110128;28;20538;-86
2023/10/03 04:10:30;;;;;;;13.27;4.53;;;19.50;99.90;;;;;;5090984;28;20208;-88
2023/10/03 04:12:56;;;;;;;11.88;4.60;;;19.40;99.90;;;;;;5092219;28;20081;-88
2023/10/03 04:15:23;;;;;;;12.65;4.60;;;19.40;99.90;;;;;;5110059;28;20024;-87
2023/10/03 04:17:49;;;;;;;8.73;4.10;;;19.40;99.90;;;;;;5110094;28;20041;-87
2023/10/03 04:20:31;;;;;;;16.23;4.82;;;19.40;99.90;;;;;;5110719;28;20019;-87
2023/10/03 04:22:58;;;;;;;17.90;4.80;;;19.40;99.90;;;;;;5113520;28;20031;-87
2023/10/03 04:25:24;;;;;;;10.87;4.60;;;19.40;99.90;;;;;;5105453;28;20513;-86
2023/10/03 04:27:52;;;;;;;11.38;4.20;;;19.40;99.90;;;;;;5109751;28;20114;-86
2023/10/03 04:30:26;;;;;;;11.90;4.18;;;19.50;99.90;;;;;;5087860;28;20072;-86
2023/10/03 04:32:53;;;;;;;6.03;3.70;;;19.40;99.90;;;;;;5109812;28;20028;-86
2023/10/03 04:35:20;;;;;;;8.63;3.40;;;19.30;99.90;;;;;;5109889;28;20030;-86
2023/10/03 04:37:51;;;;;;;8.88;4.03;;;19.30;99.90;;;;;;5109066;28;20050;-87
2023/10/03 04:40:28;;;;;;;6.78;4.00;;;19.20;99.90;;;;;;5110332;28;20557;-88
2023/10/03 04:42:55;;;;;;;6.18;2.60;;;19.00;99.90;;;;;;5110027;28;20023;-87
2023/10/03 04:45:21;;;;;;;9.77;2.70;;;18.90;99.90;;;;;;5112984;27;20110;-86
2023/10/03 04:47:48;;;;;;;9.65;2.92;;;18.60;99.90;;;;;;5091689;28;20026;-86
2023/10/03 04:50:18;;;;;;;6.13;2.33;;;18.60;99.90;;;;;;5091153;28;20035;-87
2023/10/03 04:52:48;;;;;;;7.85;2.40;;;18.60;99.90;;;;;;5100613;28;20035;-86
2023/10/03 04:55:17;;;;;;;6.10;2.42;;;18.40;99.90;;;;;;5101452;27;20148;-85
2023/10/03 04:57:51;;;;;;;7.05;2.40;;;18.40;99.90;;;;;;5100998;28;20494;-86
2023/10/03 05:00:21;;;;;;;6.55;3.05;;;18.30;99.90;;;;;;5101024;28;20503;-87
2023/10/03 05:02:52;;;;;;;8.45;2.67;;;18.30;99.90;;;;;;5107561;28;20031;-87
2023/10/03 05:05:22;;;;;;;8.07;2.85;;;18.00;99.90;;;;;;5108274;28;20024;-85
2023/10/03 05:07:49;;;;;;;6.88;2.50;;;18.00;99.90;;;;;;5103791;28;20039;-86
2023/10/03 05:10:18;;;;;;;10.20;2.73;;;18.00;99.90;;;;;;5096675;28;20043;-85
2023/10/03 05:12:48;;;;;;;6.57;2.60;;;17.90;99.90;;;;;;5107355;28;20458;-86
2023/10/03 05:15:15;;;;;;;8.70;3.45;;;17.80;99.90;;;;;;5106837;28;20024;-85
2023/10/03 05:17:44;;;;;;;8.38;3.10;;;17.80;99.90;;;;;;5107692;28;20091;-85
2023/10/03 05:20:12;;;;;;;11.40;2.97;;;17.70;99.90;;;;;;5107474;28;20031;-85
2023/10/03 05:22:40;;;;;;;8.05;2.83;;;17.70;99.90;;;;;;5090228;28;20399;-85
2023/10/03 05:25:11;;;;;;;8.60;2.92;;;17.70;99.90;;;;;;5108469;28;20027;-85
2023/10/03 05:27:37;;;;;;;7.95;2.95;;;17.70;99.90;;;;;;5108562;28;20064;-86
2023/10/03 05:30:05;;;;;;;8.15;2.70;;;17.70;99.90;;;;;;5088383;28;20395;-87
2023/10/03 05:32:31;;;;;;;12.48;3.05;;;17.80;99.90;;;;;;5107352;28;20027;-86
2023/10/03 05:34:58;;;;;;;8.27;2.97;;;17.80;99.90;;;;;;5111266;28;20141;-84
2023/10/03 05:37:25;;;;;;;12.05;3.50;;;17.60;99.90;;;;;;5105241;28;20086;-86
2023/10/03 05:39:50;;;;;;;9.02;2.90;;;17.60;99.90;;;;;;5103658;28;20028;-87
2023/10/03 05:42:17;;;;;;;10.90;2.90;;;17.50;99.90;;;;;;5094858;28;20114;-86
2023/10/03 05:44:44;;;;;;;12.52;3.13;;;17.50;99.90;;;;;;5114106;28;20035;-85
2023/10/03 05:47:09;;;;;;;7.05;3.03;;;17.60;99.90;;;;;;5112940;28;20093;-85
2023/10/03 05:49:35;;;;;;;9.98;2.95;;;17.60;99.90;;;;;;5112365;28;20421;-85
2023/10/03 05:52:01;;;;;;;8.20;3.03;;;17.40;99.90;;;;;;5112117;28;20539;-86
2023/10/03 05:54:26;;;;;;;10.98;3.00;;;17.40;99.90;;;;;;5110928;28;20116;-88
2023/10/03 05:56:53;;;;;;;13.70;3.30;;;17.40;99.90;;;;;;5110880;28;20442;-85
2023/10/03 05:59:20;;;;;;;11.38;3.08;;;17.40;99.90;;;;;;5110648;28;20032;-86
2023/10/03 06:01:47;;;;;;;8.23;3.05;;;17.50;99.90;;;;;;5094241;28;20020;-83
2023/10/03 06:04:13;;;;;;;8.68;2.80;;;17.50;99.90;;;;;;5101470;28;20043;-84
2023/10/03 06:06:38;;;;;;;7.20;3.05;;;17.30;99.90;;;;;;5111383;28;20469;-86
2023/10/03 06:09:04;;;;;;;11.38;3.17;;;17.10;99.90;;;;;;5093512;28;20175;-84
2023/10/03 06:11:30;;;;;;;8.00;3.00;;;17.10;99.90;;;;;;5109987;28;20050;-85
2023/10/03 06:13:59;;;;;;;8.02;3.03;;;17.20;99.90;;;;;;5107941;27;20028;-84
2023/10/03 06:16:26;;;;;;;8.70;2.97;;;17.20;99.90;;;;;;5073917;28;20483;-84
2023/10/03 06:18:52;;;;;;;12.15;3.38;;;17.30;99.90;;;;;;5107354;28;20560;-83
2023/10/03 06:21:18;;;;;;;10.38;2.88;;;17.20;99.90;;;;;;5112082;28;20023;-84
2023/10/03 06:23:47;;;;;;;10.02;3.20;;;17.30;99.90;;;;;;5112856;28;20486;-84
2023/10/03 06:26:20;;;;;;;9.05;3.60;;;17.20;99.90;;;;;;5112281;28;20016;-85
2023/10/03 06:28:48;;;;;;;8.75;3.25;;;17.20;99.90;;;;;;5112875;28;20062;-84
2023/10/03 06:31:14;;;;;;;7.50;2.83;;;17.20;99.90;;;;;;5112691;28;20031;-83
2023/10/03 06:33:42;;;;;;;7.93;3.45;;;17.10;99.90;;;;;;5111591;28;20034;-84
2023/10/03 06:36:08;;;;;;;6.47;2.83;;;17.00;99.90;;;;;;5093873;28;20411;-84
2023/10/03 06:38:34;;;;;;;9.77;3.05;;;17.10;99.90;;;;;;5113411;27;20491;-84
2023/10/03 06:41:00;;;;;;;11.10;3.35;;;17.20;99.90;;;;;;5112905;27;20474;-84
2023/10/03 06:43:26;;;;;;;10.52;3.13;;;17.20;99.90;;;;;;5110898;28;20054;-83
2023/10/03 06:45:51;;;;;;;8.30;3.30;;;17.20;99.90;;;;;;5110966;28;20019;-87
2023/10/03 06:48:17;;;;;;;9.93;3.20;;;17.10;99.90;;;;;;5112357;28;20102;-85
2023/10/03 06:50:43;;;;;;;10.43;3.10;;;17.10;99.90;;;;;;5111266;28;20032;-87
2023/10/03 06:53:09;;;;;;;12.10;3.50;;;17.10;99.90;;;;;;5093882;28;20126;-85
2023/10/03 06:55:36;;;;;;;11.68;3.55;;;17.10;99.90;;;;;;5111227;28;20066;-83
2023/10/03 06:58:03;;;;;;;7.35;3.10;;;17.00;99.90;;;;;;5111835;28;20020;-84
2023/10/03 07:00:31;;;;;;;9.30;3.38;;;16.90;99.90;;;;;;5092049;28;20491;-84
2023/10/03 07:02:56;;;;;;;5.70;3.40;;;16.90;99.90;;;;;;5111241;28;20376;-84
2023/10/03 07:05:22;;;;;;;10.65;3.63;;;16.80;99.90;;;;;;5111272;28;20088;-84
2023/10/03 07:07:47;;;;;;;9.65;3.55;;;16.90;99.90;;;;;;5093753;28;20053;-84
2023/10/03 07:10:13;;;;;;;6.85;2.88;;;16.80;99.90;;;;;;5111459;28;20016;-84
2023/10/03 07:12:39;;;;;;;13.15;3.70;;;18.20;99.90;;;;;;5083129;28;20343;-84
2023/10/03 07:15:14;;;;;;;11.90;3.38;;;16.80;99.90;;;;;;5088061;28;20027;-84
2023/10/03 07:17:40;;;;;;;8.65;3.20;;;18.40;99.90;;;;;;5088826;28;20027;-84
2023/10/03 07:20:08;;;;;;;11.68;3.47;;;16.80;99.90;;;;;;5070687;28;20024;-83
2023/10/03 07:22:34;;;;;;;9.82;3.42;;;17.00;99.90;;;;;;5087658;28;20032;-84
2023/10/03 07:24:59;;;;;;;11.13;3.38;;;17.00;99.90;;;;;;5072918;28;20043;-85
2023/10/03 07:27:25;;;;;;;8.93;3.13;;;17.00;99.90;;;;;;5071216;28;20042;-84
2023/10/03 07:29:50;;;;;;;8.20;3.65;;;17.00;99.90;;;;;;5089910;28;20596;-84
2023/10/03 07:32:16;;;;;;;15.45;3.78;;;17.10;99.90;;;;;;5087987;28;20048;-84
2023/10/03 07:34:43;;;;;;;6.15;2.92;;;17.20;99.90;;;;;;5087296;28;20156;-84
2023/10/03 07:37:09;;;;;;;9.98;3.40;;;17.20;99.90;;;;;;5086738;28;20054;-84
2023/10/03 07:39:34;;;;;;;12.55;3.55;;;17.10;99.90;;;;;;5086576;28;20422;-85
2023/10/03 07:42:01;;;;;;;11.68;3.38;;;17.10;99.90;;;;;;5089568;28;20039;-84
2023/10/03 07:44:27;;;;;;;9.30;3.40;;;17.10;99.90;;;;;;5086992;28;20063;-84
2023/10/03 07:46:53;;;;;;;11.95;3.88;;;17.10;99.90;;;;;;5085131;28;20106;-84
2023/10/03 07:49:18;;;;;;;12.15;3.85;;;17.20;99.90;;;;;;5088764;28;20036;-84
2023/10/03 07:51:45;;;;;;;10.13;3.08;;;17.10;99.90;;;;;;5104562;28;20027;-84
2023/10/03 07:54:11;;;;;;;8.93;3.47;;;17.00;99.90;;;;;;5086943;28;20329;-83
2023/10/03 07:56:41;;;;;;;11.80;3.45;;;17.00;99.90;;;;;;5086212;28;20027;-84
2023/10/03 07:59:07;;;;;;;8.27;3.10;;;17.00;99.90;;;;;;5085842;28;20107;-84
2023/10/03 08:01:38;;;;;;;6.55;2.67;;;16.90;99.90;;;;;;5086670;28;20042;-83
2023/10/03 08:04:08;;;;;;;7.40;2.90;;;17.00;99.90;;;;;;5096312;28;20036;-84
2023/10/03 08:06:34;;;;;;;7.57;2.85;;;16.90;99.90;;;;;;5086316;28;20027;-85
2023/10/03 08:09:00;;;;;;;6.65;2.90;;;17.00;99.90;;;;;;5086647;28;20019;-84
2023/10/03 08:11:30;;;;;;;8.25;2.75;;;17.10;99.90;;;;;;5089856;28;20024;-84
2023/10/03 08:13:56;;;;;;;6.53;2.90;;;17.20;99.90;;;;;;5086990;28;20059;-84
2023/10/03 08:16:23;;;;;;;7.18;2.70;;;17.20;99.90;;;;;;5071982;28;20027;-84
2023/10/03 08:18:58;;;;;;;8.80;2.40;;;17.30;99.90;;;;;;5087270;28;20055;-84
2023/10/03 08:21:27;;;;;;;5.15;2.60;;;17.40;99.90;;;;;;5093523;28;20023;-90
2023/10/03 08:23:57;;;;;;;6.05;2.03;;;17.40;99.90;;;;;;5079890;28;20036;-90
2023/10/03 08:26:25;;;;;;;5.13;2.40;;;;;;;;;;5078761;28;20632;-87
2023/10/03 08:29:04;;;;;;;4.70;2.10;;;17.40;99.90;;;;;;5095847;28;20019;-87
2023/10/03 08:31:30;;;;;;;4.50;1.92;;;17.40;99.90;;;;;;5110188;28;20028;-86
2023/10/03 08:33:56;;;;;;;6.07;2.28;;;;;;;;;;5112447;27;20474;-86
2023/10/03 08:36:23;;;;;;;4.13;1.65;;;17.50;99.90;;;;;;5109242;28;20043;-86
2023/10/03 08:38:49;;;;;;;3.63;1.85;;;17.50;99.90;;;;;;5120396;27;20098;-85
2023/10/03 08:41:29;;;;;;;4.85;1.70;;;17.50;99.90;;;;;;5120451;27;20483;-86
2023/10/03 08:43:58;;;;;;;5.20;1.45;;;17.30;99.90;;;;;;5109701;28;20039;-86
2023/10/03 08:46:29;;;;;;;7.57;1.50;;;17.30;99.90;;;;;;5110538;28;20023;-86
2023/10/03 08:49:00;;;;;;;3.97;1.77;;;17.40;99.90;;;;;;5110275;28;20031;-86
2023/10/03 08:51:32;;;;;;;3.38;1.40;;;17.50;99.90;;;;;;5109384;28;20046;-86
2023/10/03 08:54:08;;;;;;;4.22;1.33;;;17.50;99.90;;;;;;5110060;28;20368;-85
2023/10/03 08:56:35;;;;;;;4.47;1.40;;;17.50;99.90;;;;;;5108255;28;20019;-86
2023/10/03 08:59:08;;;;;;;3.50;1.30;;;17.60;99.90;;;;;;5098850;27;20031;-87
2023/10/03 09:01:37;;;;;;;4.40;1.10;;;17.60;99.90;;;;;;5120558;27;20023;-86
2023/10/03 09:04:06;;;;;;;2.42;1.00;;;17.30;99.90;;;;;;5119029;27;20040;-87
2023/10/03 09:06:38;;;;;;;5.45;1.55;;;17.20;99.90;;;;;;5089506;28;20384;-88
2023/10/03 09:09:08;;;;;;;2.15;1.20;;;17.20;99.90;;;;;;5105406;28;20059;-86
2023/10/03 09:11:37;;;;;;;1.88;1.15;;;17.30;99.90;;;;;;5115364;28;20027;-87
2023/10/03 09:14:06;;;;;;;1.52;1.20;;;17.30;99.90;;;;;;5098157;28;20024;-85
2023/10/03 09:16:38;;;;;;;4.55;1.33;;;17.10;99.90;;;;;;5097198;28;20035;-86
2023/10/03 09:19:13;;;;;;;6.97;2.03;;;16.90;99.90;;;;;;5116571;28;20073;-87
2023/10/03 09:21:39;;;;;;;5.45;1.73;;;17.00;99.90;;;;;;5116583;28;20059;-86
2023/10/03 09:24:20;;;;;;;3.55;1.35;;;17.20;99.90;;;;;;5116036;28;20066;-87
2023/10/03 09:27:07;;;;;;;5.47;1.50;;;17.20;99.90;;;;;;5116467;28;20030;-87
2023/10/03 09:29:34;;;;;;;4.93;1.17;;;17.20;99.90;;;;;;5094918;28;20081;-87
2023/10/03 09:32:20;;;;;;;7.18;1.70;;;17.10;99.90;;;;;;5095992;28;20042;-87
2023/10/03 09:34:56;;;;;;;9.02;1.75;;;17.20;99.90;;;;;;5115799;28;20376;-87
2023/10/03 09:37:28;;;;;;;7.82;1.33;;;17.20;99.90;;;;;;5098041;28;20445;-86
2023/10/03 09:40:16;;;;;;;4.90;1.50;;;17.20;99.90;;;;;;5116714;28;20045;-87
2023/10/03 09:42:48;;;;;;;4.67;1.20;;;17.20;99.90;;;;;;5116088;28;20027;-86
2023/10/03 09:45:17;;;;;;;5.68;1.63;;;17.30;99.90;;;;;;5115730;28;20028;-87
2023/10/03 09:47:42;;;;;;;5.05;1.48;;;17.40;99.90;;;;;;5116081;28;20020;-88
2023/10/03 09:50:09;;;;;;;5.70;1.50;;;17.40;99.90;;;;;;5105998;28;20031;-87
2023/10/03 09:52:38;;;;;;;7.00;1.67;;;;;;;;;;5095842;28;20458;-86
2023/10/03 09:55:17;;;;;;;6.88;1.73;;;;;;;;;;5077401;28;20051;-86
2023/10/03 09:57:51;;;;;;;6.78;1.60;;;;;;;;;;5083191;28;20038;-86
2023/10/03 10:00:38;;;;;;;8.35;1.92;;;;;;;;;;5097821;28;20016;-85
2023/10/03 10:03:06;;;;;;;8.98;1.50;;;;;;;;;;5116056;28;20114;-87
2023/10/03 10:05:33;;;;;;;3.72;1.20;;;;;;;;;;5115644;28;20069;-86
2023/10/03 10:08:09;;;;;;;4.80;1.70;;;;;;;;;;5115218;28;20106;-87
2023/10/03 10:10:35;;;;;;;5.10;1.33;;;;;;;;;;5097194;28;20039;-86
2023/10/03 10:13:12;;;;;;;6.45;1.77;;;;;;;;;;5097802;28;20073;-87
2023/10/03 10:15:57;;;;;;;7.43;1.50;;;;;;;;;;5097922;28;20028;-88
2023/10/03 10:18:51;;;;;;;4.30;1.42;;;;;;;;;;5115448;28;20107;-87
2023/10/03 10:21:20;;;;;;;8.77;1.77;;;;;;;;;;5107675;27;20109;-87
2023/10/03 10:24:05;;;;;;;6.13;1.60;;;;;;;;;;5105923;27;20594;-90
2023/10/03 10:26:31;;;;;;;5.40;1.48;;;;;;;;;;5105526;28;20031;-86
2023/10/03 10:29:05;;;;;;;5.25;1.45;;;;;;;;;;5112939;28;20119;-88
2023/10/03 10:31:42;;;;;;;4.25;1.40;;;;;;;;;;5112337;28;20020;-87
2023/10/03 10:34:20;;;;;;;5.30;1.38;;;;;;;;;;5091685;28;20066;-86
2023/10/03 10:37:09;;;;;;;7.70;1.70;;;;;;;;;;5112721;28;20425;-89
2023/10/03 10:39:54;;;;;;;6.10;1.65;;;;;;;;;;5094429;28;20059;-89
2023/10/03 10:42:29;;;;;;;6.43;1.52;;;;;;;;;;5094106;28;20085;-90
2023/10/03 10:45:04;;;;;;;4.00;1.45;;;;;;;;;;5112768;28;20498;-89
2023/10/03 10:47:44;;;;;;;3.97;1.48;;;;;;;;;;5095272;28;20023;-89
2023/10/03 10:50:11;;;;;;;3.40;1.42;;;;;;;;;;5111915;28;20088;-89
2023/10/03 10:52:52;;;;;;;4.57;1.33;;;;;;;;;;5094349;28;20027;-90
2023/10/03 10:55:18;;;;;;;6.07;1.50;;;;;;;;;;5112552;28;20102;-90
2023/10/03 10:57:44;;;;;;;6.07;1.67;;;;;;;;;;5094119;28;20171;-89
2023/10/03 11:00:15;;;;;;;4.43;1.30;;;;;;;;;;5094400;28;20027;-87
2023/10/03 11:02:43;;;;;;;3.45;1.38;;;;;;;;;;5111994;28;20038;-89
2023/10/03 11:05:10;;;;;;;5.38;1.73;;;;;;;;;;5094297;28;20030;-90
2023/10/03 11:07:37;;;;;;;5.85;1.40;;;;;;;;;;5112282;28;20038;-89
2023/10/03 11:10:07;;;;;;;4.10;1.40;;;;;;;;;;5094228;28;20044;-87
2023/10/03 11:12:35;;;;;;;3.92;1.30;;;;;;;;;;5112161;28;20023;-89
2023/10/03 11:15:02;;;;;;;4.10;1.38;;;;;;;;;;5112961;28;20024;-89
2023/10/03 11:17:28;;;;;;;2.72;1.20;;;;;;;;;;5094786;28;20032;-90
2023/10/03 11:19:55;;;;;;;7.10;1.63;;;;;;;;;;5093903;28;20403;-88
2023/10/03 11:22:21;;;;;;;4.68;1.23;;;;;;;;;;5093768;28;20020;-90
2023/10/03 11:24:48;;;;;;;3.67;1.38;;;;;;;;;;5112017;28;20027;-89
2023/10/03 11:27:28;;;;;;;3.10;1.15;;;;;;;;;;5111837;28;20046;-89
2023/10/03 11:29:55;;;;;;;1.98;1.27;;;;;;;;;;5111831;28;20119;-89
2023/10/03 11:32:35;;;;;;;6.63;1.65;;;;;;;;;;5093365;28;20383;-89
2023/10/03 11:35:17;;;;;;;4.97;1.10;;;;;;;;;;5094089;28;20150;-90
2023/10/03 11:37:44;;;;;;;4.13;1.20;;;;;;;;;;5111746;28;20532;-89
2023/10/03 11:40:14;;;;;;;5.03;1.65;;;;;;;;;;5093411;28;20019;-89
2023/10/03 11:43:04;;;;;;;4.88;1.42;;;;;;;;;;5093378;28;20399;-90
2023/10/03 11:45:31;;;;;;;7.35;1.50;;;;;;;;;;5099760;28;20035;-88
2023/10/03 11:48:07;;;;;;;3.38;1.30;;;;;;;;;;5093339;28;20055;-91
2023/10/03 11:50:34;;;;;;;2.75;1.30;;;;;;;;;;5093956;28;20034;-90
2023/10/03 11:53:01;;;;;;;3.97;1.23;;;;;;;;;;5094181;28;20027;-91
2023/10/03 11:55:28;;;;;;;4.63;1.20;;;;;;;;;;5093234;28;20052;-91
2023/10/03 11:57:54;;;;;;;2.90;1.33;;;;;;;;;;5111331;28;20065;-90
2023/10/03 12:00:24;;;;;;;3.78;1.15;;;;;;;;;;5093309;28;20038;-89
2023/10/03 12:02:50;;;;;;;5.28;1.40;;;;;;;;;;5092794;28;20031;-88
2023/10/03 12:05:16;;;;;;;2.53;1.10;;;;;;;;;;5111029;28;20073;-88
2023/10/03 12:07:49;;;;;;;4.95;1.60;;;;;;;;;;5093089;28;20494;-90
2023/10/03 12:10:16;;;;;;;3.35;1.30;;;;;;;;;;5111059;28;20110;-91
2023/10/03 12:12:42;;;;;;;5.32;1.60;;;;;;;;;;5111090;28;20036;-89
2023/10/03 12:15:12;;;;;;;4.30;1.70;;;;;;;;;;5110921;28;20020;-89
2023/10/03 12:17:48;;;;;;;6.05;1.45;;;;;;;;;;5110856;28;20028;-89
2023/10/03 12:20:16;;;;;;;5.18;1.33;;;;;;;;;;5110753;28;20024;-89
2023/10/03 12:22:44;;;;;;;6.85;1.50;;;;;;;;;;5110725;28;20020;-88
2023/10/03 12:25:10;;;;;;;3.03;1.20;;;;;;;;;;5110907;28;20058;-91
2023/10/03 12:27:37;;;;;;;6.20;1.48;;;;;;;;;;5093031;28;20432;-87
2023/10/03 12:30:04;;;;;;;3.53;1.40;;;;;;;;;;5093305;28;20020;-89
2023/10/03 12:32:35;;;;;;;3.03;1.08;;;;;;;;;;5092632;28;20403;-86
2023/10/03 12:35:02;;;;;;;4.55;1.20;;;;;;;;;;5111028;28;20016;-87
2023/10/03 12:37:28;;;;;;;4.97;1.23;;;;;;;;;;5110271;28;20023;-87
2023/10/03 12:39:55;;;;;;;5.25;1.23;;;;;;;;;;5110303;28;20042;-88
2023/10/03 12:42:21;;;;;;;3.33;1.17;;;;;;;;;;5109790;28;20024;-91
2023/10/03 12:44:50;;;;;;;5.88;1.20;;;;;;;;;;5091429;28;20039;-90
2023/10/03 12:47:16;;;;;;;8.25;1.45;;;;;;;;;;5108281;27;20031;-89
2023/10/03 12:49:42;;;;;;;3.35;1.20;;;;;;;;;;5091360;28;20031;-87
2023/10/03 12:52:08;;;;;;;7.72;1.50;;;;;;;;;;5114340;27;20015;-87
2023/10/03 12:54:34;;;;;;;5.60;1.17;;;;;;;;;;5112172;27;20031;-88
2023/10/03 12:57:00;;;;;;;3.00;1.23;;;;;;;;;;5093842;28;20063;-87
2023/10/03 12:59:26;;;;;;;7.68;1.35;;;;;;;;;;5091937;28;20020;-87
2023/10/03 13:01:52;;;;;;;3.83;1.00;;;;;;;;;;5109051;28;20027;-87
2023/10/03 13:04:18;;;;;;;2.50;1.10;;;;;;;;;;5110164;28;20036;-88
2023/10/03 13:06:45;;;;;;;5.03;1.23;;;;;;;;;;5091791;28;20030;-87
2023/10/03 13:09:12;;;;;;;5.28;1.52;;;;;;;;;;5110085;28;20024;-88
2023/10/03 13:11:39;;;;;;;8.30;1.35;;;;;;;;;;5111293;28;20484;-89
2023/10/03 13:14:05;;;;;;;3.38;1.10;;;;;;;;;;5092546;28;20024;-89
2023/10/03 13:16:31;;;;;;;8.30;1.20;;;;;;;;;;5091797;28;20015;-87
2023/10/03 13:18:57;;;;;;;2.97;1.45;;;;;;;;;;5110122;28;20027;-88
2023/10/03 13:21:23;;;;;;;3.00;1.10;;;;;;;;;;5091309;28;20024;-89